Brandon, United Kingdom
Current Conditions -  °F | °C
As of 2:38 PM on Friday 24 Oct 2014 (Local Time) from EGUL Reporting Station
Broken Clouds Broken Clouds  
Wind Chill: 63°   Ceiling: 4200
Heat Index: 63°   Visibility: 6mi
Dew Point: 63°   Wind: 12mph
Humidity: 100%   Direction: 210°SSW
Pressure: 29.89"   Gusts: NA
Location:  52.45°N, 0.63°E
Report Text: EGUL 241338Z AUTO 21010KT 9999 SCT021 BKN042 17/17 A2989 RMK AO2
Loading
Personal Weather Stations






























Interactive Weather Map
Tropical Storm Tracking
New forecast layout! Learn more

10-Day Weather Forecast

Advertisements
Track Severe Weather on mobile